Suula — OJKZ — position and weather

sailwx.info

Track history (hours):
 
Tides and Currents Weather Stations Pressure Air Temp Water Temp Dewpoint Dewpoint Depression Visibility Wind Speed Wind Dir Waves Ship Positions

Suula

Last reported at 2017-Mar-27 11:33 UTC. Time now 2017-Mar-28 23:23 UTC.
Position N 59°32' E 021°19'.

Length 140 m; draft 6.5 m.

Type: Tanker. MMSI: 230956996.

Date/timePositionNaut miles runAvg speedWind from/ knotsBaromVisibWave heightAir tempDewpointWater temp
2017-Mar-27 11:33N 59°32' E 021°19'1413.6
2017-Mar-27 10:33N 59°30' E 021°45'1514.9
2017-Mar-27 09:33N 59°33' E 022°14'2814.0
2017-Mar-27 07:31N 59°38' E 023°10'1314.0
2017-Mar-27 06:33N 59°41' E 023°36'1414.3
2017-Mar-27 05:33N 59°45' E 024°03'56 2.2
2017-Mar-26 04:27N 60°19' E 025°34'21 0.4
2017-Mar-24 01:33N 59°59' E 025°50'  
2017-Mar-20 12:06N 60°09' E 025°39'58 1.4
2017-Mar-18 19:09N 59°40' E 023°58'813.8
2017-Mar-18 18:33N 59°37' E 023°43'6412.8
2017-Mar-18 13:33N 59°33' E 021°37'1313.0
2017-Mar-18 12:33N 59°43' E 021°21'1111.3
2017-Mar-18 11:33N 59°53' E 021°30'  
Track history (hours):
 
Tides and Currents Weather Stations Pressure Air Temp Water Temp Dewpoint Dewpoint Depression Visibility Wind Speed Wind Dir Waves Ship Positions

Suula

Last reported at 2017-Mar-27 11:33 UTC. Time now 2017-Mar-28 23:23 UTC.
Position N 59°32' E 021°19'.

Length 140 m; draft 6.5 m.

Type: Tanker. MMSI: 230956996.

Date/timePositionNaut miles runAvg speedWind from/ knotsBaromVisibWave heightAir tempDewpointWater temp
2017-Mar-27 11:33N 59°32' E 021°19'1413.6
2017-Mar-27 10:33N 59°30' E 021°45'1514.9
2017-Mar-27 09:33N 59°33' E 022°14'2814.0
2017-Mar-27 07:31N 59°38' E 023°10'1314.0
2017-Mar-27 06:33N 59°41' E 023°36'1414.3
2017-Mar-27 05:33N 59°45' E 024°03'56 2.2
2017-Mar-26 04:27N 60°19' E 025°34'21 0.4
2017-Mar-24 01:33N 59°59' E 025°50'  
2017-Mar-20 12:06N 60°09' E 025°39'58 1.4
2017-Mar-18 19:09N 59°40' E 023°58'813.8
2017-Mar-18 18:33N 59°37' E 023°43'6412.8
2017-Mar-18 13:33N 59°33' E 021°37'1313.0
2017-Mar-18 12:33N 59°43' E 021°21'1111.3
2017-Mar-18 11:33N 59°53' E 021°30'  

Dump ship's entire track history